createdAt,value
2022-11-16T00:00:24.012Z,0.00
2022-11-16T00:01:19.686Z,0.00
2022-11-16T00:02:14.925Z,0.00
2022-11-16T00:03:10.723Z,0.00
2022-11-16T00:04:05.876Z,0.00
2022-11-16T00:05:01.230Z,0.00
2022-11-16T00:05:56.880Z,0.00
2022-11-16T00:06:52.164Z,0.00
2022-11-16T00:07:48.158Z,0.00
2022-11-16T00:08:42.497Z,0.00
2022-11-16T00:09:37.794Z,0.00
2022-11-16T00:10:32.868Z,0.00
2022-11-16T00:11:28.075Z,0.00
2022-11-16T00:12:26.296Z,0.00
2022-11-16T00:13:21.479Z,0.00
2022-11-16T00:14:16.838Z,0.00
2022-11-16T00:15:11.889Z,0.00
2022-11-16T00:16:06.925Z,0.00
2022-11-16T00:17:02.022Z,0.00
2022-11-16T00:17:57.140Z,0.00
2022-11-16T00:18:52.150Z,0.00
2022-11-16T00:19:47.250Z,0.00
2022-11-16T00:20:42.307Z,0.00
2022-11-16T00:21:37.492Z,0.00
2022-11-16T00:22:32.620Z,0.00
2022-11-16T00:23:27.660Z,0.00
2022-11-16T00:24:22.746Z,0.00
2022-11-16T00:25:17.806Z,0.00
2022-11-16T00:26:13.137Z,0.00
2022-11-16T00:27:08.087Z,0.00
2022-11-16T00:28:03.148Z,0.00
2022-11-16T00:28:58.309Z,0.00
2022-11-16T00:29:53.151Z,0.00
2022-11-16T00:30:48.221Z,0.00
2022-11-16T00:31:43.268Z,0.00
2022-11-16T00:32:38.282Z,0.00
2022-11-16T00:33:33.516Z,0.00
2022-11-16T00:34:28.617Z,0.00
2022-11-16T00:35:23.800Z,0.00
2022-11-16T00:36:19.051Z,0.00
2022-11-16T00:37:14.174Z,0.00
2022-11-16T00:38:09.143Z,0.00
2022-11-16T00:39:04.224Z,0.00
2022-11-16T00:39:59.324Z,0.00
2022-11-16T00:40:54.422Z,0.00
2022-11-16T00:41:49.454Z,0.00
2022-11-16T00:42:45.763Z,0.00
2022-11-16T00:43:40.960Z,0.00
2022-11-16T00:44:36.933Z,0.00
2022-11-16T00:45:31.858Z,0.00
2022-11-16T00:46:27.050Z,0.00
2022-11-16T00:47:22.855Z,0.00
2022-11-16T00:48:18.080Z,0.00
2022-11-16T00:49:13.940Z,0.00
2022-11-16T00:50:09.009Z,0.00
2022-11-16T00:51:04.230Z,0.00
2022-11-16T00:52:00.018Z,0.00
2022-11-16T00:52:55.225Z,0.00
2022-11-16T00:53:50.557Z,0.00
2022-11-16T00:54:46.898Z,0.00
2022-11-16T00:55:42.068Z,0.00
2022-11-16T00:56:37.834Z,0.00
2022-11-16T00:57:33.005Z,0.00
2022-11-16T00:58:28.493Z,0.00
2022-11-16T00:59:24.223Z,0.00
2022-11-16T01:00:19.393Z,0.00
2022-11-16T01:01:15.240Z,0.00
2022-11-16T01:02:10.464Z,0.00
2022-11-16T01:03:05.751Z,0.00
2022-11-16T01:04:01.539Z,0.00
2022-11-16T01:04:56.678Z,0.00
2022-11-16T01:05:51.853Z,0.00
2022-11-16T01:06:48.288Z,0.00
2022-11-16T01:07:43.532Z,0.00
2022-11-16T01:08:39.586Z,0.00
2022-11-16T01:09:34.495Z,0.00
2022-11-16T01:10:29.724Z,0.00
2022-11-16T01:11:25.532Z,0.00
2022-11-16T01:12:20.762Z,0.00
2022-11-16T01:13:16.572Z,0.00
2022-11-16T01:14:12.175Z,0.00
2022-11-16T01:15:07.168Z,0.00
2022-11-16T01:16:03.000Z,0.00
2022-11-16T01:16:58.402Z,0.00
2022-11-16T01:17:53.419Z,0.00
2022-11-16T01:18:50.001Z,0.00
2022-11-16T01:19:45.287Z,0.00
2022-11-16T01:20:41.000Z,0.00
2022-11-16T01:21:36.233Z,0.00
2022-11-16T01:22:31.432Z,0.00
2022-11-16T01:23:27.207Z,0.00
2022-11-16T01:24:22.404Z,0.00
2022-11-16T01:25:18.368Z,0.00
2022-11-16T01:26:13.474Z,0.00
2022-11-16T01:27:08.700Z,0.00
2022-11-16T01:28:04.501Z,0.00
2022-11-16T01:28:59.696Z,0.00
2022-11-16T01:29:55.004Z,0.00
2022-11-16T01:30:51.323Z,0.00
2022-11-16T01:31:46.558Z,0.00
2022-11-16T01:32:42.353Z,0.00
2022-11-16T01:33:37.542Z,0.00
2022-11-16T01:34:32.899Z,0.00
2022-11-16T01:35:28.599Z,0.00
2022-11-16T01:36:23.791Z,0.00
2022-11-16T01:37:18.992Z,0.00
2022-11-16T01:38:14.172Z,0.00
2022-11-16T01:39:10.073Z,0.00
2022-11-16T01:40:05.182Z,0.00
2022-11-16T01:41:00.462Z,0.00
2022-11-16T01:41:56.780Z,0.00
2022-11-16T01:42:51.993Z,0.00
2022-11-16T01:43:47.784Z,0.00
2022-11-16T01:44:42.951Z,0.00
2022-11-16T01:45:38.417Z,0.00
2022-11-16T01:46:34.079Z,0.00
2022-11-16T01:47:29.325Z,0.00
2022-11-16T01:48:25.199Z,0.00
2022-11-16T01:49:20.288Z,0.00
2022-11-16T01:50:15.758Z,0.00
2022-11-16T01:51:11.425Z,0.00
2022-11-16T01:52:06.617Z,0.00
2022-11-16T01:53:01.795Z,0.00
2022-11-16T01:53:58.263Z,0.00
2022-11-16T01:54:53.413Z,0.00
2022-11-16T01:55:48.609Z,0.00
2022-11-16T01:56:43.806Z,0.00
2022-11-16T01:57:39.956Z,0.00
2022-11-16T01:58:34.495Z,0.00
2022-11-16T01:59:30.240Z,0.00
2022-11-16T02:00:25.303Z,0.00
2022-11-16T02:01:20.529Z,0.00
2022-11-16T02:02:15.783Z,0.00
2022-11-16T02:03:12.063Z,0.00
2022-11-16T02:04:07.231Z,0.00
2022-11-16T02:05:02.472Z,0.00
2022-11-16T02:06:01.859Z,0.00
2022-11-16T02:06:57.252Z,0.00
2022-11-16T02:07:52.207Z,0.00
2022-11-16T02:08:47.419Z,0.00
2022-11-16T02:09:42.440Z,0.00
2022-11-16T02:10:37.533Z,0.00
2022-11-16T02:11:32.624Z,0.00
2022-11-16T02:12:27.639Z,0.00
2022-11-16T02:13:22.726Z,0.00
2022-11-16T02:14:17.923Z,0.00
2022-11-16T02:15:12.970Z,0.00
2022-11-16T02:16:08.042Z,0.00
2022-11-16T02:17:03.134Z,0.00
2022-11-16T02:17:58.212Z,0.00
2022-11-16T02:18:53.255Z,0.00
2022-11-16T02:19:48.441Z,0.00
2022-11-16T02:20:43.515Z,0.00
2022-11-16T02:21:38.544Z,0.00
2022-11-16T02:22:33.656Z,0.00
2022-11-16T02:23:28.718Z,0.00
2022-11-16T02:24:23.742Z,0.00
2022-11-16T02:25:18.813Z,0.00
2022-11-16T02:26:13.830Z,0.00
2022-11-16T02:27:08.886Z,0.00
2022-11-16T02:28:03.961Z,0.00
2022-11-16T02:28:59.013Z,0.00
2022-11-16T02:29:54.059Z,0.00
2022-11-16T02:30:49.131Z,0.00
2022-11-16T02:31:44.568Z,0.00
2022-11-16T02:32:39.655Z,0.00
2022-11-16T02:33:34.678Z,0.00
2022-11-16T02:34:29.736Z,0.00
2022-11-16T02:35:24.802Z,0.00
2022-11-16T02:36:19.971Z,0.00
2022-11-16T02:37:15.046Z,0.00
2022-11-16T02:38:10.546Z,0.00
2022-11-16T02:39:05.056Z,0.00
2022-11-16T02:40:00.128Z,0.00
2022-11-16T02:40:55.148Z,0.00
2022-11-16T02:41:50.287Z,0.00
2022-11-16T02:42:45.299Z,0.00
2022-11-16T02:43:40.391Z,0.00
2022-11-16T02:44:35.423Z,0.00
2022-11-16T02:45:30.461Z,0.00
2022-11-16T02:46:25.499Z,0.00
2022-11-16T02:47:20.536Z,0.00
2022-11-16T02:48:17.285Z,0.00
2022-11-16T02:49:12.453Z,0.00
2022-11-16T02:50:08.402Z,0.00
2022-11-16T02:51:02.883Z,0.00
2022-11-16T02:51:58.231Z,0.00
2022-11-16T02:52:53.704Z,0.00
2022-11-16T02:53:48.634Z,0.00
2022-11-16T02:54:43.839Z,0.00
2022-11-16T02:55:39.160Z,0.00
2022-11-16T02:56:34.199Z,0.00
2022-11-16T02:57:29.427Z,0.00
2022-11-16T02:58:24.688Z,0.00
2022-11-16T02:59:19.854Z,0.00
2022-11-16T03:00:15.033Z,0.00
2022-11-16T03:01:10.149Z,0.00
2022-11-16T03:02:05.235Z,0.00
2022-11-16T03:03:00.274Z,0.00
2022-11-16T03:03:58.237Z,0.00
2022-11-16T03:04:53.402Z,0.00
2022-11-16T03:05:48.603Z,0.00
2022-11-16T03:06:43.794Z,0.00
2022-11-16T03:07:38.985Z,0.00
2022-11-16T03:08:35.208Z,0.00
2022-11-16T03:09:30.109Z,0.00
2022-11-16T03:10:25.445Z,0.00
2022-11-16T03:11:21.191Z,0.00
2022-11-16T03:12:16.402Z,0.00
2022-11-16T03:13:12.604Z,0.00
2022-11-16T03:14:07.606Z,0.00
2022-11-16T03:15:02.645Z,0.00
2022-11-16T03:15:58.541Z,0.00
2022-11-16T03:16:53.747Z,0.00
2022-11-16T03:17:49.075Z,0.00
2022-11-16T03:18:45.396Z,0.00
2022-11-16T03:19:40.599Z,0.00
2022-11-16T03:20:36.380Z,0.00
2022-11-16T03:21:31.610Z,0.00
2022-11-16T03:22:26.940Z,0.00
2022-11-16T03:23:23.442Z,0.00
2022-11-16T03:24:17.803Z,0.00
2022-11-16T03:25:13.600Z,0.00
2022-11-16T03:26:08.802Z,0.00
2022-11-16T03:27:04.169Z,0.00
2022-11-16T03:27:59.797Z,0.00
2022-11-16T03:28:55.004Z,0.00
2022-11-16T03:29:50.206Z,0.00
2022-11-16T03:30:46.605Z,0.00
2022-11-16T03:31:41.928Z,0.00
2022-11-16T03:32:37.665Z,0.00
2022-11-16T03:33:32.824Z,0.00
2022-11-16T03:34:28.067Z,0.00
2022-11-16T03:35:23.814Z,0.00
2022-11-16T03:36:19.100Z,0.00
2022-11-16T03:37:14.883Z,0.00
2022-11-16T03:38:10.066Z,0.00
2022-11-16T03:39:05.500Z,0.00
2022-11-16T03:40:01.211Z,0.00
2022-11-16T03:40:56.455Z,0.00
2022-11-16T03:41:51.699Z,0.00
2022-11-16T03:42:48.052Z,0.00
2022-11-16T03:43:43.271Z,0.00
2022-11-16T03:44:39.031Z,0.00
2022-11-16T03:45:34.243Z,0.00
2022-11-16T03:46:29.762Z,0.00
2022-11-16T03:47:25.294Z,0.00
2022-11-16T03:48:20.519Z,0.00
2022-11-16T03:49:16.398Z,0.00
2022-11-16T03:50:11.474Z,0.00
2022-11-16T03:51:06.690Z,0.00
2022-11-16T03:52:02.517Z,0.00
2022-11-16T03:52:57.756Z,0.00
2022-11-16T03:53:53.078Z,0.00
2022-11-16T03:54:49.419Z,0.00
2022-11-16T03:55:49.593Z,0.00
2022-11-16T03:56:42.107Z,0.00
2022-11-16T03:57:35.637Z,0.00
2022-11-16T03:58:31.424Z,0.00
2022-11-16T03:59:26.790Z,0.00
2022-11-16T04:00:22.024Z,0.00
2022-11-16T04:01:17.849Z,0.00
2022-11-16T04:02:13.035Z,0.00
2022-11-16T04:03:08.407Z,0.00
2022-11-16T04:04:04.125Z,0.00
2022-11-16T04:04:59.336Z,0.00
2022-11-16T04:05:54.535Z,0.00
2022-11-16T04:06:51.041Z,0.00
2022-11-16T04:07:46.319Z,0.00
2022-11-16T04:08:41.513Z,0.00
2022-11-16T04:09:36.604Z,0.00
2022-11-16T04:10:31.716Z,0.00
2022-11-16T04:11:26.761Z,0.00
2022-11-16T04:12:21.905Z,0.00
2022-11-16T04:13:16.882Z,0.00
2022-11-16T04:14:11.974Z,0.00
2022-11-16T04:15:07.056Z,0.00
2022-11-16T04:16:02.149Z,0.00
2022-11-16T04:16:57.134Z,0.00
2022-11-16T04:17:52.289Z,0.00
2022-11-16T04:18:47.210Z,0.00
2022-11-16T04:19:42.273Z,0.00
2022-11-16T04:20:37.324Z,0.00
2022-11-16T04:21:32.593Z,0.00
2022-11-16T04:22:30.507Z,0.00
2022-11-16T04:23:25.586Z,0.00
2022-11-16T04:24:20.800Z,0.00
2022-11-16T04:25:15.862Z,0.00
2022-11-16T04:26:11.095Z,0.00
2022-11-16T04:27:06.062Z,0.00
2022-11-16T04:28:01.115Z,0.00
2022-11-16T04:28:56.220Z,0.00
2022-11-16T04:29:51.308Z,0.00
2022-11-16T04:30:46.374Z,0.00
2022-11-16T04:31:41.463Z,0.00
2022-11-16T04:32:36.554Z,0.00
2022-11-16T04:33:31.677Z,0.00
2022-11-16T04:34:26.768Z,0.00
2022-11-16T04:35:21.834Z,0.00
2022-11-16T04:36:20.539Z,0.00
2022-11-16T04:37:11.931Z,0.00
2022-11-16T04:38:07.010Z,0.00
2022-11-16T04:39:02.782Z,0.00
2022-11-16T04:39:57.995Z,0.00
2022-11-16T04:40:53.201Z,0.00
2022-11-16T04:41:49.114Z,0.00
2022-11-16T04:42:44.181Z,0.00
2022-11-16T04:43:40.203Z,0.00
2022-11-16T04:44:35.280Z,0.00
2022-11-16T04:45:30.404Z,0.00
2022-11-16T04:46:26.196Z,0.00
2022-11-16T04:47:21.482Z,0.00
2022-11-16T04:48:16.793Z,0.00
2022-11-16T04:49:13.140Z,0.00
2022-11-16T04:50:08.366Z,0.00
2022-11-16T04:51:04.657Z,0.00
2022-11-16T04:51:59.395Z,0.00
2022-11-16T04:52:54.783Z,0.00
2022-11-16T04:53:50.414Z,0.00
2022-11-16T04:54:45.613Z,0.00
2022-11-16T04:55:41.426Z,0.00
2022-11-16T04:56:36.635Z,0.00
2022-11-16T04:57:32.017Z,0.00
2022-11-16T04:58:27.663Z,0.00
2022-11-16T04:59:22.881Z,0.00
2022-11-16T05:00:18.085Z,0.00
2022-11-16T05:01:14.572Z,0.00
2022-11-16T05:02:09.804Z,0.00
2022-11-16T05:03:05.564Z,0.00
2022-11-16T05:04:00.731Z,0.00
2022-11-16T05:04:55.970Z,0.00
2022-11-16T05:05:51.734Z,0.00
2022-11-16T05:06:47.089Z,0.00
2022-11-16T05:07:42.760Z,0.00
2022-11-16T05:08:37.958Z,0.00
2022-11-16T05:09:33.374Z,0.00
2022-11-16T05:10:29.386Z,0.00
2022-11-16T05:11:24.364Z,0.00
2022-11-16T05:12:19.582Z,0.00
2022-11-16T05:13:15.989Z,0.00
2022-11-16T05:14:11.260Z,0.00
2022-11-16T05:15:07.040Z,0.00
2022-11-16T05:16:02.294Z,0.00
2022-11-16T05:16:57.500Z,0.00
2022-11-16T05:17:53.308Z,0.00
2022-11-16T05:18:48.518Z,0.00
2022-11-16T05:19:44.375Z,0.00
2022-11-16T05:20:39.488Z,0.00
2022-11-16T05:21:34.697Z,0.00
2022-11-16T05:22:30.476Z,0.00
2022-11-16T05:23:25.695Z,0.00
2022-11-16T05:24:21.074Z,0.00
2022-11-16T05:25:17.433Z,0.00
2022-11-16T05:26:12.653Z,0.00
2022-11-16T05:27:08.462Z,0.00
2022-11-16T05:28:03.637Z,0.00
2022-11-16T05:28:59.130Z,0.00
2022-11-16T05:29:54.791Z,0.00
2022-11-16T05:30:50.022Z,0.00
2022-11-16T05:31:45.824Z,0.00
2022-11-16T05:32:41.038Z,0.00
2022-11-16T05:33:36.383Z,0.00
2022-11-16T05:34:32.046Z,0.00
2022-11-16T05:35:27.252Z,0.00
2022-11-16T05:36:22.539Z,0.00
2022-11-16T05:37:18.728Z,0.00
2022-11-16T05:38:13.892Z,0.00
2022-11-16T05:39:09.567Z,0.00
2022-11-16T05:40:04.847Z,0.00
2022-11-16T05:41:00.601Z,0.00
2022-11-16T05:41:55.799Z,0.00
2022-11-16T05:42:51.216Z,0.00
2022-11-16T05:43:46.899Z,0.00
2022-11-16T05:44:42.148Z,0.00
2022-11-16T05:45:37.392Z,0.00
2022-11-16T05:46:33.867Z,0.00
2022-11-16T05:47:29.303Z,0.00
2022-11-16T05:48:24.916Z,0.00
2022-11-16T05:49:20.157Z,0.00
2022-11-16T05:50:16.384Z,0.00
2022-11-16T05:51:11.227Z,0.00
2022-11-16T05:52:06.476Z,0.00
2022-11-16T05:53:02.234Z,0.00
2022-11-16T05:53:57.403Z,0.00
2022-11-16T05:54:52.602Z,0.00
2022-11-16T05:55:47.850Z,1.00
2022-11-16T05:56:43.244Z,1.00
2022-11-16T05:57:38.211Z,1.00
2022-11-16T05:58:33.734Z,0.00
2022-11-16T05:59:28.296Z,1.00
2022-11-16T06:00:27.230Z,1.00
2022-11-16T06:02:49.287Z,2.00
2022-11-16T06:03:44.253Z,2.00
2022-11-16T06:04:38.702Z,2.00
2022-11-16T06:05:39.034Z,3.00
2022-11-16T06:06:30.081Z,3.00
2022-11-16T06:07:24.415Z,4.00
2022-11-16T06:08:19.563Z,5.00
2022-11-16T06:09:14.842Z,6.00
2022-11-16T06:10:10.034Z,10.00
2022-11-16T06:11:05.436Z,11.00
2022-11-16T06:12:00.799Z,14.00
2022-11-16T06:12:55.995Z,17.00
2022-11-16T06:13:51.241Z,21.00
2022-11-16T06:14:46.451Z,24.00
2022-11-16T06:15:41.713Z,27.00
2022-11-16T06:16:36.956Z,31.00
2022-11-16T06:17:32.237Z,36.00
2022-11-16T06:18:27.507Z,43.00
2022-11-16T06:19:22.739Z,50.00
2022-11-16T06:20:18.171Z,56.00
2022-11-16T06:21:13.238Z,59.00
2022-11-16T06:22:08.565Z,65.00
2022-11-16T06:23:03.808Z,73.00
2022-11-16T06:23:59.057Z,85.00
2022-11-16T06:24:54.315Z,93.00
2022-11-16T06:25:49.530Z,106.00
2022-11-16T06:26:44.823Z,110.00
2022-11-16T06:27:40.138Z,118.00
2022-11-16T06:28:35.622Z,120.00
2022-11-16T06:29:30.829Z,125.00
2022-11-16T06:30:26.158Z,138.00
2022-11-16T06:31:21.474Z,148.00
2022-11-16T06:32:16.895Z,151.00
2022-11-16T06:33:12.085Z,165.00
2022-11-16T06:34:07.371Z,165.00
2022-11-16T06:35:02.713Z,163.00
2022-11-16T06:35:58.008Z,160.00
2022-11-16T06:36:53.308Z,163.00
2022-11-16T06:37:48.633Z,169.00
2022-11-16T06:38:43.932Z,180.00
2022-11-16T06:39:39.262Z,194.00
2022-11-16T06:40:34.596Z,193.00
2022-11-16T06:41:29.969Z,216.00
2022-11-16T06:42:25.449Z,219.00
2022-11-16T06:43:20.750Z,229.00
2022-11-16T06:44:16.326Z,235.00
2022-11-16T06:45:11.515Z,253.00
2022-11-16T06:46:06.873Z,264.00
2022-11-16T06:47:02.356Z,290.00
2022-11-16T06:47:57.596Z,313.00
2022-11-16T06:48:52.993Z,338.00
2022-11-16T06:49:48.363Z,364.00
2022-11-16T06:50:43.722Z,374.00
2022-11-16T06:51:39.053Z,388.00
2022-11-16T06:52:34.582Z,403.00
2022-11-16T06:53:29.809Z,426.00
2022-11-16T06:54:25.151Z,457.00
2022-11-16T06:55:20.530Z,508.00
2022-11-16T06:56:15.871Z,547.00
2022-11-16T06:57:11.197Z,624.00
2022-11-16T06:58:06.583Z,650.00
2022-11-16T06:59:01.960Z,716.00
2022-11-16T06:59:57.299Z,763.00
2022-11-16T07:00:52.659Z,771.00
2022-11-16T07:01:48.065Z,813.00
2022-11-16T07:02:43.509Z,788.00
2022-11-16T07:03:38.831Z,815.00
2022-11-16T07:04:34.017Z,870.00
2022-11-16T07:05:29.497Z,921.00
2022-11-16T07:06:24.832Z,1024.00
2022-11-16T07:07:20.394Z,1056.00
2022-11-16T07:08:15.703Z,1135.00
2022-11-16T07:09:11.132Z,1190.00
2022-11-16T07:10:06.520Z,1156.00
2022-11-16T07:11:04.354Z,1153.00
2022-11-16T07:11:57.508Z,1164.00
2022-11-16T07:12:53.050Z,1204.00
2022-11-16T07:13:48.304Z,1226.00
2022-11-16T07:14:43.699Z,1237.00
2022-11-16T07:15:39.183Z,1254.00
2022-11-16T07:16:34.519Z,1233.00
2022-11-16T07:17:29.964Z,1192.00
2022-11-16T07:18:25.215Z,1156.00
2022-11-16T07:19:20.603Z,1053.00
2022-11-16T07:20:15.991Z,1065.00
2022-11-16T07:21:11.421Z,1099.00
2022-11-16T07:22:06.942Z,1168.00
2022-11-16T07:23:02.329Z,1269.00
2022-11-16T07:23:57.731Z,1339.00
2022-11-16T07:24:53.675Z,1346.00
2022-11-16T07:25:48.541Z,1519.00
2022-11-16T07:26:43.967Z,1623.00
2022-11-16T07:27:39.419Z,1766.00
2022-11-16T07:28:35.138Z,1832.00
2022-11-16T07:29:31.337Z,1914.00
2022-11-16T07:30:25.876Z,1969.00
2022-11-16T07:31:21.335Z,2014.00
2022-11-16T07:32:16.766Z,2136.00
2022-11-16T07:33:12.187Z,2211.00
2022-11-16T07:34:07.887Z,2274.00
2022-11-16T07:35:03.192Z,2407.00
2022-11-16T07:35:58.626Z,2526.00
2022-11-16T07:36:54.061Z,2686.00
2022-11-16T07:37:49.484Z,2689.00
2022-11-16T07:38:45.097Z,2715.00
2022-11-16T07:39:40.422Z,2712.00
2022-11-16T07:40:35.892Z,2659.00
2022-11-16T07:41:31.388Z,2685.00
2022-11-16T07:42:26.845Z,2666.00
2022-11-16T07:43:22.372Z,2974.00
2022-11-16T07:44:17.944Z,3152.00
2022-11-16T07:45:13.242Z,3214.00
2022-11-16T07:46:44.784Z,3207.00
2022-11-16T07:47:05.153Z,2932.00
2022-11-16T07:47:59.768Z,2699.00
2022-11-16T07:48:55.097Z,2581.00
2022-11-16T07:49:50.700Z,2642.00
2022-11-16T07:50:46.226Z,2613.00
2022-11-16T07:51:41.504Z,2405.00
2022-11-16T07:52:36.935Z,2460.00
2022-11-16T07:53:32.414Z,2531.00
2022-11-16T07:54:27.977Z,2718.00
2022-11-16T07:55:23.396Z,2581.00
2022-11-16T07:56:18.828Z,2714.00
2022-11-16T07:57:14.389Z,2561.00
2022-11-16T07:58:09.874Z,2700.00
2022-11-16T07:59:05.143Z,2677.00
2022-11-16T08:00:00.579Z,2737.00
2022-11-16T08:00:55.988Z,2781.00
2022-11-16T08:01:51.511Z,2974.00
2022-11-16T08:02:46.820Z,3143.00
2022-11-16T08:03:42.536Z,3077.00
2022-11-16T08:04:37.838Z,2962.00
2022-11-16T08:05:33.297Z,2960.00
2022-11-16T08:06:29.636Z,2951.00
2022-11-16T08:07:24.448Z,3083.00
2022-11-16T08:08:19.773Z,3229.00
2022-11-16T08:09:15.361Z,3327.00
2022-11-16T08:10:10.828Z,3522.00
2022-11-16T08:11:06.193Z,3698.00
2022-11-16T08:12:01.827Z,3655.00
2022-11-16T08:12:57.689Z,3721.00
2022-11-16T08:13:52.880Z,3873.00
2022-11-16T08:14:49.779Z,4481.00
2022-11-16T08:15:43.843Z,5125.00
2022-11-16T08:16:39.327Z,6474.00
2022-11-16T08:17:34.879Z,7170.00
2022-11-16T08:18:30.410Z,6447.00
2022-11-16T08:19:25.852Z,4350.00
2022-11-16T08:20:21.300Z,3634.00
2022-11-16T08:21:16.738Z,3058.00
2022-11-16T08:22:12.196Z,3232.00
2022-11-16T08:23:07.688Z,3116.00
2022-11-16T08:24:02.974Z,2929.00
2022-11-16T08:24:58.554Z,3073.00
2022-11-16T08:25:53.815Z,3016.00
2022-11-16T08:26:49.367Z,2902.00
2022-11-16T08:27:44.648Z,3086.00
2022-11-16T08:28:40.073Z,3133.00
2022-11-16T08:29:35.515Z,2936.00
2022-11-16T08:30:30.921Z,2811.00
2022-11-16T08:31:26.365Z,2868.00
2022-11-16T08:32:21.744Z,3074.00
2022-11-16T08:33:17.164Z,3932.00
2022-11-16T08:34:12.573Z,4859.00
2022-11-16T08:35:08.140Z,5657.00
2022-11-16T08:36:03.557Z,5678.00
2022-11-16T08:36:59.032Z,4838.00
2022-11-16T08:37:54.602Z,3713.00
2022-11-16T08:38:50.056Z,3628.00
2022-11-16T08:39:45.478Z,3628.00
2022-11-16T08:40:40.921Z,3722.00
2022-11-16T08:41:36.343Z,4486.00
2022-11-16T08:42:32.127Z,6514.00
2022-11-16T08:43:27.169Z,7063.00
2022-11-16T08:44:22.578Z,5593.00
2022-11-16T08:45:17.968Z,6059.00
2022-11-16T08:46:13.371Z,7957.00
2022-11-16T08:47:08.812Z,9632.00
2022-11-16T08:48:04.482Z,11543.00
2022-11-16T08:49:00.213Z,11537.00
2022-11-16T08:49:55.027Z,12631.00
2022-11-16T08:51:15.800Z,11116.00
2022-11-16T08:51:46.998Z,13428.00
2022-11-16T08:52:41.356Z,14611.00
2022-11-16T08:53:36.933Z,11441.00
2022-11-16T08:54:32.261Z,10396.00
2022-11-16T08:55:27.914Z,7672.00
2022-11-16T08:56:23.163Z,7752.00
2022-11-16T08:57:18.582Z,8398.00
2022-11-16T08:58:14.030Z,8771.00
2022-11-16T08:59:09.459Z,8389.00
2022-11-16T09:00:05.165Z,7593.00
2022-11-16T09:01:00.337Z,7928.00
2022-11-16T09:01:55.936Z,8847.00
2022-11-16T09:02:51.133Z,10011.00
2022-11-16T09:03:46.644Z,10869.00
2022-11-16T09:04:42.249Z,10781.00
2022-11-16T09:05:37.907Z,11863.00
2022-11-16T09:06:33.232Z,13597.00
2022-11-16T09:07:29.488Z,12538.00
2022-11-16T09:08:24.137Z,9158.00
2022-11-16T09:09:19.844Z,11577.00
2022-11-16T09:10:15.133Z,12753.00
2022-11-16T09:11:10.488Z,13174.00
2022-11-16T09:12:05.950Z,12011.00
2022-11-16T09:13:01.561Z,9284.00
2022-11-16T09:13:57.104Z,11208.00
2022-11-16T09:14:52.497Z,11655.00
2022-11-16T09:15:48.240Z,11075.00
2022-11-16T09:16:43.376Z,11506.00
2022-11-16T09:17:38.767Z,10406.00
2022-11-16T09:18:34.606Z,10545.00
2022-11-16T09:19:29.841Z,10607.00
2022-11-16T09:20:25.325Z,10047.00
2022-11-16T09:21:20.816Z,10632.00
2022-11-16T09:22:16.574Z,10339.00
2022-11-16T09:23:11.726Z,10439.00
2022-11-16T09:24:07.355Z,10870.00
2022-11-16T09:25:02.692Z,11463.00
2022-11-16T09:25:58.033Z,11485.00
2022-11-16T09:26:53.456Z,11247.00
2022-11-16T09:27:49.084Z,9040.00
2022-11-16T09:28:44.462Z,9430.00
2022-11-16T09:29:39.960Z,7654.00
2022-11-16T09:30:35.414Z,6464.00
2022-11-16T09:31:31.757Z,6650.00
2022-11-16T09:32:26.291Z,6080.00
2022-11-16T09:33:21.818Z,5832.00
2022-11-16T09:34:17.102Z,7324.00
2022-11-16T09:35:12.611Z,8915.00
2022-11-16T09:36:07.897Z,9382.00
2022-11-16T09:37:03.460Z,9921.00
2022-11-16T09:37:58.829Z,9082.00
2022-11-16T09:39:50.786Z,6342.00
2022-11-16T09:40:45.304Z,5863.00
2022-11-16T09:41:40.738Z,5990.00
2022-11-16T09:42:36.284Z,6692.00
2022-11-16T09:43:32.141Z,8623.00
2022-11-16T09:44:27.184Z,10080.00
2022-11-16T09:45:22.699Z,10740.00
2022-11-16T09:46:18.220Z,12246.00
2022-11-16T09:47:13.747Z,12900.00
2022-11-16T09:48:09.116Z,13122.00
2022-11-16T09:49:04.916Z,11202.00
2022-11-16T09:50:03.532Z,10045.00
2022-11-16T09:50:55.804Z,8957.00
2022-11-16T09:51:51.274Z,11043.00
2022-11-16T09:52:46.793Z,10779.00
2022-11-16T09:53:42.199Z,9074.00
2022-11-16T09:54:37.655Z,9035.00
2022-11-16T09:55:33.138Z,9643.00
2022-11-16T09:56:28.574Z,9542.00
2022-11-16T09:57:24.204Z,8978.00
2022-11-16T09:58:19.508Z,9366.00
2022-11-16T09:59:18.091Z,8828.00
2022-11-16T10:00:10.414Z,8620.00
2022-11-16T10:01:05.946Z,8460.00
2022-11-16T10:02:01.254Z,8997.00
2022-11-16T10:02:56.740Z,8891.00
2022-11-16T10:03:52.062Z,9675.00
2022-11-16T10:04:47.498Z,10567.00
2022-11-16T10:05:43.069Z,10276.00
2022-11-16T10:06:38.800Z,10139.00
2022-11-16T10:07:33.995Z,11370.00
2022-11-16T10:08:29.476Z,10769.00
2022-11-16T10:09:24.712Z,10659.00
2022-11-16T10:10:20.085Z,10714.00
2022-11-16T10:11:15.611Z,9983.00
2022-11-16T10:12:11.319Z,9773.00
2022-11-16T10:13:06.579Z,8818.00
2022-11-16T10:14:04.440Z,7959.00
2022-11-16T10:14:57.419Z,7686.00
2022-11-16T10:15:52.836Z,7987.00
2022-11-16T10:16:48.470Z,10428.00
2022-11-16T10:17:43.787Z,9786.00
2022-11-16T10:18:39.365Z,7738.00
2022-11-16T10:19:34.927Z,7317.00
2022-11-16T10:20:31.065Z,6875.00
2022-11-16T10:21:25.709Z,6191.00
2022-11-16T10:22:21.032Z,4407.00
2022-11-16T10:23:16.441Z,3941.00
2022-11-16T10:24:11.912Z,4850.00
2022-11-16T10:25:07.316Z,5937.00
2022-11-16T10:26:03.283Z,6433.00
2022-11-16T10:26:58.155Z,5741.00
2022-11-16T10:27:53.573Z,5631.00
2022-11-16T10:28:49.110Z,5419.00
2022-11-16T10:29:44.434Z,5883.00
2022-11-16T10:30:39.868Z,5987.00
2022-11-16T10:31:35.583Z,5560.00
2022-11-16T10:32:30.983Z,5575.00
2022-11-16T10:33:26.600Z,6700.00
2022-11-16T10:34:21.930Z,8975.00
2022-11-16T10:35:17.411Z,8934.00
2022-11-16T10:36:12.884Z,8085.00
2022-11-16T10:37:08.583Z,8210.00
2022-11-16T10:38:03.886Z,8512.00
2022-11-16T10:38:59.173Z,7388.00
2022-11-16T10:39:54.601Z,6892.00
2022-11-16T10:40:50.009Z,6736.00
2022-11-16T10:41:45.440Z,7252.00
2022-11-16T10:42:40.912Z,7376.00
2022-11-16T10:43:36.594Z,6977.00
2022-11-16T10:44:31.725Z,6048.00
2022-11-16T10:45:27.407Z,4672.00
2022-11-16T10:46:22.995Z,3613.00
2022-11-16T10:47:18.973Z,3650.00
2022-11-16T10:48:13.906Z,4615.00
2022-11-16T10:49:09.188Z,5740.00
2022-11-16T10:50:05.361Z,5908.00
2022-11-16T10:51:00.538Z,6026.00
2022-11-16T10:51:55.396Z,6165.00
2022-11-16T10:52:50.987Z,5957.00
2022-11-16T10:53:46.287Z,5683.00
2022-11-16T10:54:44.417Z,5494.00
2022-11-16T10:55:37.101Z,5375.00
2022-11-16T10:56:32.514Z,6602.00
2022-11-16T10:57:27.922Z,7988.00
2022-11-16T10:58:23.359Z,7845.00
2022-11-16T10:59:18.783Z,8333.00
2022-11-16T11:00:18.303Z,8053.00
2022-11-16T11:01:10.858Z,8332.00
2022-11-16T11:02:05.182Z,8319.00
2022-11-16T11:03:00.706Z,7461.00
2022-11-16T11:03:56.031Z,6911.00
2022-11-16T11:04:51.484Z,6932.00
2022-11-16T11:05:47.030Z,6827.00
2022-11-16T11:06:42.481Z,6573.00
2022-11-16T11:07:37.973Z,6684.00
2022-11-16T11:08:33.581Z,6829.00
2022-11-16T11:09:29.544Z,7673.00
2022-11-16T11:10:24.177Z,6894.00
2022-11-16T11:11:19.641Z,6612.00
2022-11-16T11:12:15.048Z,6631.00
2022-11-16T11:13:10.476Z,6512.00
2022-11-16T11:14:06.022Z,6936.00
2022-11-16T11:15:01.290Z,7014.00
2022-11-16T11:15:56.756Z,6747.00
2022-11-16T11:16:52.345Z,6812.00
2022-11-16T11:17:47.904Z,6482.00
2022-11-16T11:18:43.207Z,6500.00
2022-11-16T11:19:38.721Z,6396.00
2022-11-16T11:20:34.875Z,6591.00
2022-11-16T11:21:29.609Z,7145.00
2022-11-16T11:22:24.934Z,7323.00
2022-11-16T11:23:20.365Z,7304.00
2022-11-16T11:24:43.403Z,7363.00
2022-11-16T11:25:12.152Z,7646.00
2022-11-16T11:26:06.674Z,7679.00
2022-11-16T11:27:02.174Z,7924.00
2022-11-16T11:27:57.604Z,7918.00
2022-11-16T11:28:53.136Z,7457.00
2022-11-16T11:29:48.483Z,8013.00
2022-11-16T11:30:44.130Z,9027.00
2022-11-16T11:31:39.558Z,9021.00
2022-11-16T11:32:35.016Z,9966.00
2022-11-16T11:33:30.445Z,10013.00
2022-11-16T11:34:25.896Z,9717.00
2022-11-16T11:35:21.335Z,8934.00
2022-11-16T11:36:16.749Z,8228.00
2022-11-16T11:37:12.247Z,8006.00
2022-11-16T11:38:08.565Z,8985.00
2022-11-16T11:39:03.360Z,10073.00
2022-11-16T11:39:58.767Z,10951.00
2022-11-16T11:40:54.391Z,10988.00
2022-11-16T11:41:49.859Z,10982.00
2022-11-16T11:42:45.527Z,10644.00
2022-11-16T11:43:40.720Z,10606.00
2022-11-16T11:44:36.198Z,10626.00
2022-11-16T11:45:31.820Z,10947.00
2022-11-16T11:46:47.354Z,10940.00